Time;durP1;ratioP1;P1;durP2;ratioP2;P2;SDS_P1;SDS_P2;PMS_P1;PMS_P2;Temp;Humidity;BMP_temperature;BMP_pressure;BME280_temperature;BME280_humidity;BME280_pressure;Samples;Min_cycle;Max_cycle;Signal;HPM_P1;HPM_P2
2022/10/06 00:00:31;;;;;;;3.63;1.30;;;17.30;86.80;;;;;;5028721;28;20067;-78
2022/10/06 00:02:56;;;;;;;3.33;1.20;;;17.30;86.90;;;;;;5010610;28;20026;-78
2022/10/06 00:05:22;;;;;;;2.70;1.02;;;17.30;86.90;;;;;;5028308;28;20755;-79
2022/10/06 00:07:48;;;;;;;2.70;1.10;;;17.30;87.00;;;;;;5009913;28;20029;-79
2022/10/06 00:10:14;;;;;;;2.00;1.20;;;17.20;86.90;;;;;;5010076;28;20108;-78
2022/10/06 00:12:47;;;;;;;2.05;1.23;;;17.20;87.00;;;;;;5002659;28;20089;-79
2022/10/06 00:15:16;;;;;;;1.40;1.00;;;17.20;87.10;;;;;;5010038;28;20056;-79
2022/10/06 00:17:41;;;;;;;2.15;1.20;;;17.20;87.00;;;;;;5027505;28;20472;-78
2022/10/06 00:20:08;;;;;;;1.90;1.08;;;17.20;87.10;;;;;;5009771;28;20056;-79
2022/10/06 00:22:40;;;;;;;2.30;1.25;;;17.20;87.10;;;;;;5008549;28;20029;-78
2022/10/06 00:25:06;;;;;;;1.67;0.93;;;17.20;87.20;;;;;;5010142;28;20519;-79
2022/10/06 00:27:38;;;;;;;2.15;1.08;;;17.20;87.20;;;;;;5009656;28;20037;-79
2022/10/06 00:30:06;;;;;;;2.65;1.00;;;17.20;87.10;;;;;;5009654;28;20029;-79
2022/10/06 00:32:31;;;;;;;1.73;1.00;;;17.20;87.20;;;;;;5026707;28;20423;-78
2022/10/06 00:35:00;;;;;;;3.15;1.23;;;17.20;87.20;;;;;;5009492;28;20025;-77
2022/10/06 00:37:27;;;;;;;1.73;0.75;;;17.20;87.20;;;;;;5009847;28;20085;-77
2022/10/06 00:39:53;;;;;;;1.17;0.90;;;17.20;87.20;;;;;;5009665;28;20052;-78
2022/10/06 00:42:28;;;;;;;3.13;1.27;;;17.20;87.20;;;;;;5026462;28;20812;-77
2022/10/06 00:44:55;;;;;;;1.95;1.10;;;17.20;87.10;;;;;;5011757;28;20120;-80
2022/10/06 00:47:23;;;;;;;2.38;1.00;;;17.20;87.00;;;;;;5011502;28;20087;-78
2022/10/06 00:49:50;;;;;;;2.25;1.00;;;17.20;87.00;;;;;;5010993;28;20029;-78
2022/10/06 00:52:22;;;;;;;2.30;0.90;;;17.30;86.90;;;;;;5010600;28;20431;-79
2022/10/06 00:54:48;;;;;;;1.88;1.00;;;17.20;86.80;;;;;;5010536;28;20036;-79
2022/10/06 00:57:14;;;;;;;1.83;1.15;;;17.20;86.70;;;;;;5009967;28;20034;-78
2022/10/06 00:59:40;;;;;;;1.65;0.90;;;17.20;86.80;;;;;;5009188;28;20404;-79
2022/10/06 01:02:26;;;;;;;1.98;1.05;;;17.20;86.90;;;;;;5010202;28;20029;-78
2022/10/06 01:04:55;;;;;;;1.45;0.93;;;17.30;86.90;;;;;;5027728;28;20423;-78
2022/10/06 01:07:22;;;;;;;2.40;1.00;;;17.20;87.00;;;;;;5009845;28;20030;-78
2022/10/06 01:09:48;;;;;;;2.13;1.00;;;17.20;87.10;;;;;;5027821;28;20132;-79
2022/10/06 01:12:14;;;;;;;2.83;1.10;;;17.20;87.20;;;;;;5009819;28;20108;-79
2022/10/06 01:14:40;;;;;;;1.35;0.90;;;17.20;87.20;;;;;;5009672;28;20025;-79
2022/10/06 01:17:20;;;;;;;1.48;0.82;;;17.10;87.20;;;;;;5009942;28;20033;-78
2022/10/06 01:19:59;;;;;;;1.27;0.90;;;17.20;87.30;;;;;;5010165;28;20025;-79
2022/10/06 01:22:42;;;;;;;1.85;0.93;;;17.10;87.30;;;;;;5009542;28;20033;-78
2022/10/06 01:25:10;;;;;;;1.60;0.80;;;17.10;87.30;;;;;;5009495;28;20120;-78
2022/10/06 01:27:38;;;;;;;1.08;0.77;;;17.10;87.30;;;;;;5011443;28;20116;-78
2022/10/06 01:30:07;;;;;;;1.45;0.80;;;17.10;87.40;;;;;;5012797;28;20025;-77
2022/10/06 01:32:36;;;;;;;1.90;1.10;;;17.10;87.40;;;;;;5012028;28;20034;-78
2022/10/06 01:35:02;;;;;;;1.92;1.10;;;17.20;87.40;;;;;;5012683;28;20426;-77
2022/10/06 01:37:27;;;;;;;1.20;0.90;;;17.10;87.40;;;;;;5030674;28;20540;-78
2022/10/06 01:39:53;;;;;;;1.10;0.80;;;17.20;87.30;;;;;;5030379;28;20029;-78
2022/10/06 01:42:18;;;;;;;1.88;0.98;;;17.10;87.30;;;;;;5030020;28;20060;-79
2022/10/06 01:44:44;;;;;;;2.50;1.20;;;17.10;87.10;;;;;;5032693;28;20030;-79
2022/10/06 01:47:09;;;;;;;1.67;0.88;;;17.20;87.10;;;;;;5013934;28;20033;-78
2022/10/06 01:49:35;;;;;;;1.30;0.85;;;17.20;87.00;;;;;;5031997;28;20048;-80
2022/10/06 01:52:01;;;;;;;1.30;0.80;;;17.20;86.80;;;;;;5013602;28;20025;-79
2022/10/06 01:54:27;;;;;;;1.10;0.88;;;17.20;86.80;;;;;;5031766;28;20030;-78
2022/10/06 01:56:52;;;;;;;1.77;0.90;;;17.20;86.80;;;;;;5029289;28;20025;-78
2022/10/06 01:59:18;;;;;;;1.30;0.80;;;17.20;86.70;;;;;;5030398;28;20029;-79
2022/10/06 02:01:43;;;;;;;1.50;1.02;;;17.20;86.90;;;;;;5030647;28;20553;-80
2022/10/06 02:04:09;;;;;;;1.35;0.70;;;17.20;87.00;;;;;;5013321;28;20124;-78
2022/10/06 02:06:34;;;;;;;2.67;1.05;;;17.20;87.10;;;;;;5011871;28;20025;-78
2022/10/06 02:09:01;;;;;;;1.63;0.90;;;17.20;87.20;;;;;;5029853;28;20017;-79
2022/10/06 02:11:27;;;;;;;1.95;0.90;;;17.10;87.30;;;;;;5012833;28;20022;-79
2022/10/06 02:13:53;;;;;;;1.65;0.90;;;17.10;87.30;;;;;;5012594;28;20021;-78
2022/10/06 02:16:19;;;;;;;2.05;0.93;;;17.00;87.30;;;;;;5013185;28;20047;-78
2022/10/06 02:18:45;;;;;;;1.13;0.75;;;17.10;87.30;;;;;;5013745;28;20636;-78
2022/10/06 02:21:16;;;;;;;1.10;0.90;;;17.10;87.30;;;;;;5031789;28;20040;-79
2022/10/06 02:23:42;;;;;;;1.50;0.90;;;17.20;87.40;;;;;;5013741;28;20029;-78
2022/10/06 02:26:08;;;;;;;1.02;0.70;;;17.10;87.30;;;;;;5012762;28;20427;-78
2022/10/06 02:28:34;;;;;;;1.35;0.68;;;17.10;87.40;;;;;;5013461;28;20041;-79
2022/10/06 02:31:01;;;;;;;1.52;0.80;;;17.10;87.30;;;;;;5030263;28;20432;-79
2022/10/06 02:33:26;;;;;;;0.90;0.70;;;17.10;87.30;;;;;;5030786;28;20036;-77
2022/10/06 02:35:55;;;;;;;1.48;0.80;;;17.20;87.50;;;;;;5012537;28;20033;-78
2022/10/06 02:38:22;;;;;;;1.33;0.93;;;17.00;87.30;;;;;;5011532;28;20030;-80
2022/10/06 02:40:48;;;;;;;1.58;0.77;;;17.20;87.50;;;;;;5030115;28;20489;-78
2022/10/06 02:43:14;;;;;;;0.90;0.80;;;17.10;87.40;;;;;;5012419;28;20091;-78
2022/10/06 02:45:40;;;;;;;1.60;0.70;;;17.10;87.30;;;;;;5006933;28;20038;-78
2022/10/06 02:48:06;;;;;;;1.60;0.80;;;17.10;87.10;;;;;;5006554;28;20777;-78
2022/10/06 02:50:33;;;;;;;1.75;0.70;;;17.10;87.00;;;;;;5011532;28;20064;-78
2022/10/06 02:52:59;;;;;;;1.52;0.93;;;17.00;86.80;;;;;;5010568;28;20075;-78
2022/10/06 02:55:24;;;;;;;1.67;0.77;;;17.20;86.80;;;;;;5028871;28;20029;-79
2022/10/06 02:57:52;;;;;;;2.03;0.90;;;17.20;86.80;;;;;;5011397;28;20021;-78
2022/10/06 03:00:18;;;;;;;1.25;0.80;;;17.20;86.80;;;;;;5029146;28;20561;-79
2022/10/06 03:02:43;;;;;;;1.48;0.80;;;17.20;86.90;;;;;;5010738;28;20145;-77
2022/10/06 03:05:09;;;;;;;1.98;0.82;;;17.10;86.90;;;;;;5011082;28;20034;-78
2022/10/06 03:07:34;;;;;;;2.13;0.82;;;17.10;87.00;;;;;;5010823;28;20422;-78
2022/10/06 03:10:00;;;;;;;1.42;0.90;;;17.10;87.10;;;;;;5011164;28;20033;-78
2022/10/06 03:12:26;;;;;;;1.25;0.80;;;17.10;87.20;;;;;;5028081;28;20034;-80
2022/10/06 03:14:51;;;;;;;1.10;0.80;;;17.10;87.30;;;;;;5010800;28;20018;-77
2022/10/06 03:17:17;;;;;;;1.70;0.90;;;17.10;87.40;;;;;;5010920;28;20120;-78
2022/10/06 03:19:42;;;;;;;1.83;0.98;;;17.00;87.30;;;;;;5010677;28;20032;-78
2022/10/06 03:22:09;;;;;;;1.38;0.63;;;17.10;87.40;;;;;;5028120;28;20044;-78
2022/10/06 03:24:35;;;;;;;1.15;0.70;;;17.10;87.40;;;;;;5010543;28;20490;-77
2022/10/06 03:27:00;;;;;;;0.90;0.80;;;17.10;87.30;;;;;;5010774;28;20036;-77
2022/10/06 03:29:29;;;;;;;1.98;0.90;;;17.10;87.40;;;;;;5010220;28;20036;-77
2022/10/06 03:31:56;;;;;;;1.42;0.80;;;17.10;87.40;;;;;;5010098;28;20079;-79
2022/10/06 03:34:22;;;;;;;2.00;1.00;;;17.00;87.40;;;;;;5010215;28;20032;-78
2022/10/06 03:36:47;;;;;;;2.67;0.80;;;16.90;87.40;;;;;;5028143;28;20030;-78
2022/10/06 03:39:13;;;;;;;2.30;0.90;;;17.10;87.50;;;;;;5010487;28;20017;-77
2022/10/06 03:41:38;;;;;;;1.75;0.80;;;17.10;87.40;;;;;;5010224;28;20041;-79
2022/10/06 03:44:04;;;;;;;2.45;0.90;;;17.10;87.40;;;;;;5010192;28;20037;-79
2022/10/06 03:46:32;;;;;;;0.95;0.63;;;17.10;87.20;;;;;;5010424;28;20481;-79
2022/10/06 03:48:59;;;;;;;1.40;0.77;;;17.10;87.00;;;;;;5009937;28;20029;-79
2022/10/06 03:51:36;;;;;;;1.48;0.80;;;17.10;86.90;;;;;;5009989;28;20087;-78
2022/10/06 03:54:02;;;;;;;1.13;0.70;;;17.20;86.90;;;;;;5027728;28;20030;-79
2022/10/06 03:56:30;;;;;;;2.55;0.98;;;17.10;86.70;;;;;;5009920;28;20519;-78
2022/10/06 03:58:58;;;;;;;1.60;0.73;;;17.20;86.70;;;;;;5009855;28;20197;-78
2022/10/06 04:01:25;;;;;;;1.30;0.80;;;17.10;86.60;;;;;;5009877;28;20036;-78
2022/10/06 04:03:56;;;;;;;1.92;0.80;;;17.10;86.70;;;;;;5027752;28;20493;-77
2022/10/06 04:06:22;;;;;;;2.35;0.98;;;17.10;86.80;;;;;;5009675;28;20055;-78
2022/10/06 04:08:50;;;;;;;1.35;0.80;;;17.10;87.00;;;;;;5009831;28;20043;-78
2022/10/06 04:11:20;;;;;;;0.90;0.70;;;17.00;87.00;;;;;;5010972;28;20047;-77
2022/10/06 04:13:47;;;;;;;1.88;0.77;;;17.10;87.20;;;;;;5015208;28;20029;-79
2022/10/06 04:16:18;;;;;;;1.55;0.80;;;17.10;87.30;;;;;;5011849;28;20033;-79
2022/10/06 04:18:48;;;;;;;1.17;0.70;;;17.00;87.30;;;;;;5013048;28;20025;-79
2022/10/06 04:21:13;;;;;;;0.85;0.60;;;17.10;87.40;;;;;;5011872;28;20036;-79
2022/10/06 04:23:39;;;;;;;1.42;0.77;;;17.00;87.30;;;;;;5011678;28;20029;-79
2022/10/06 04:26:09;;;;;;;1.80;0.85;;;17.10;87.40;;;;;;5011257;28;20556;-79
2022/10/06 04:28:37;;;;;;;1.17;0.70;;;17.00;87.30;;;;;;5012280;28;20037;-79
2022/10/06 04:31:04;;;;;;;1.90;0.80;;;17.00;87.30;;;;;;5010350;28;20025;-77
2022/10/06 04:33:32;;;;;;;2.03;0.80;;;17.00;87.40;;;;;;5009014;28;20033;-78
2022/10/06 04:36:03;;;;;;;1.10;0.80;;;17.00;87.30;;;;;;5009288;28;20099;-81
2022/10/06 04:38:36;;;;;;;0.90;0.63;;;17.00;87.30;;;;;;5011221;28;20086;-77
2022/10/06 04:41:10;;;;;;;1.27;0.80;;;17.00;87.30;;;;;;5011912;28;20033;-78
2022/10/06 04:43:35;;;;;;;0.77;0.60;;;17.00;87.30;;;;;;5009688;28;20034;-78
2022/10/06 04:46:02;;;;;;;1.15;0.60;;;17.10;87.30;;;;;;5006703;28;20037;-77
2022/10/06 04:48:29;;;;;;;1.10;0.60;;;17.00;87.10;;;;;;5009108;28;20106;-78
2022/10/06 04:51:00;;;;;;;1.58;0.77;;;17.00;87.50;;;;;;5009594;28;20021;-78
2022/10/06 04:53:27;;;;;;;0.60;0.60;;;17.10;86.90;;;;;;5004978;28;20132;-79
2022/10/06 04:56:08;;;;;;;1.85;0.70;;;17.00;86.80;;;;;;5004820;28;20034;-76
2022/10/06 04:58:37;;;;;;;1.33;0.70;;;17.10;86.80;;;;;;5025022;28;20047;-79
2022/10/06 05:01:10;;;;;;;0.88;0.60;;;17.10;86.70;;;;;;5015528;28;20055;-78
2022/10/06 05:03:37;;;;;;;1.65;0.73;;;17.10;86.70;;;;;;5011569;28;20520;-76
2022/10/06 05:06:04;;;;;;;0.75;0.60;;;17.10;86.80;;;;;;5009451;28;20474;-77
2022/10/06 05:08:31;;;;;;;0.90;0.70;;;17.10;86.90;;;;;;5008995;28;20033;-76
2022/10/06 05:11:06;;;;;;;2.15;0.80;;;17.10;87.00;;;;;;5010083;28;20037;-77
2022/10/06 05:13:32;;;;;;;1.00;0.82;;;17.10;87.00;;;;;;5014777;28;20021;-77
2022/10/06 05:16:01;;;;;;;1.20;0.65;;;17.10;87.10;;;;;;5012476;28;20035;-78
2022/10/06 05:18:28;;;;;;;1.05;0.60;;;17.00;87.10;;;;;;5009923;28;20420;-77
2022/10/06 05:20:58;;;;;;;2.28;0.85;;;17.00;87.20;;;;;;5008402;28;20701;-77
2022/10/06 05:23:28;;;;;;;1.33;0.65;;;17.00;87.20;;;;;;5008909;28;20030;-75
2022/10/06 05:25:55;;;;;;;1.20;0.70;;;17.00;87.20;;;;;;5008200;28;20501;-78
2022/10/06 05:28:22;;;;;;;0.73;0.50;;;17.00;87.20;;;;;;5025668;28;20033;-77
2022/10/06 05:31:01;;;;;;;1.15;0.70;;;16.90;87.20;;;;;;5005165;28;20029;-77
2022/10/06 05:33:30;;;;;;;0.93;0.60;;;17.00;87.20;;;;;;5010777;28;20025;-77
2022/10/06 05:36:04;;;;;;;1.10;0.75;;;17.00;87.70;;;;;;5011465;28;20404;-76
2022/10/06 05:38:31;;;;;;;0.90;0.60;;;17.00;87.20;;;;;;5026921;28;20032;-77
2022/10/06 05:41:05;;;;;;;1.67;0.85;;;17.00;87.20;;;;;;5025901;28;20026;-76
2022/10/06 05:43:31;;;;;;;1.58;0.70;;;17.00;87.20;;;;;;5007453;28;20564;-76
2022/10/06 05:45:59;;;;;;;1.33;0.68;;;17.00;87.40;;;;;;5025818;28;20041;-75
2022/10/06 05:48:25;;;;;;;1.58;0.60;;;17.00;87.10;;;;;;5025916;28;20029;-75
2022/10/06 05:51:05;;;;;;;2.17;0.70;;;17.00;87.10;;;;;;5006994;28;20028;-77
2022/10/06 05:53:34;;;;;;;1.67;0.70;;;17.00;86.90;;;;;;5026463;28;20024;-76
2022/10/06 05:56:08;;;;;;;1.15;0.65;;;17.10;86.70;;;;;;5010330;28;20037;-76
2022/10/06 05:58:35;;;;;;;2.03;0.77;;;17.10;86.50;;;;;;5028053;28;20452;-76
2022/10/06 06:01:18;;;;;;;2.42;0.65;;;17.10;86.40;;;;;;5026498;28;20030;-76
2022/10/06 06:03:50;;;;;;;2.63;0.73;;;17.10;86.30;;;;;;5027822;28;20041;-76
2022/10/06 06:06:15;;;;;;;;;;;17.10;86.30;;;;;;5027989;28;20025;-77
2022/10/06 06:08:41;;;;;;;3.58;0.80;;;17.10;86.30;;;;;;5023405;28;20336;-77
2022/10/06 06:11:07;;;;;;;2.58;0.80;;;17.10;86.40;;;;;;5008571;28;20107;-75
2022/10/06 06:13:33;;;;;;;1.63;0.60;;;17.20;86.30;;;;;;5025420;28;20022;-76
2022/10/06 06:16:00;;;;;;;2.05;0.70;;;17.20;86.20;;;;;;5022494;28;20728;-76
2022/10/06 06:18:33;;;;;;;4.03;0.90;;;17.20;86.20;;;;;;5025747;28;20488;-76
2022/10/06 06:21:01;;;;;;;2.22;0.80;;;17.20;86.10;;;;;;5024996;28;20034;-76
2022/10/06 06:23:31;;;;;;;1.67;0.70;;;17.20;86.00;;;;;;5026301;28;20113;-76
2022/10/06 06:26:02;;;;;;;1.48;0.60;;;17.20;85.90;;;;;;5026077;28;20030;-76
2022/10/06 06:28:28;;;;;;;2.63;0.93;;;17.30;85.80;;;;;;5026918;28;20053;-76
2022/10/06 06:31:12;;;;;;;2.38;0.70;;;17.30;85.70;;;;;;5027271;28;20025;-76
2022/10/06 06:33:39;;;;;;;2.13;0.77;;;17.30;85.50;;;;;;5026916;28;20029;-76
2022/10/06 06:36:35;;;;;;;1.80;0.70;;;17.30;85.40;;;;;;5027305;28;20508;-76
2022/10/06 06:39:04;;;;;;;1.65;0.73;;;17.40;85.30;;;;;;5026129;28;20045;-76
2022/10/06 06:41:32;;;;;;;2.92;0.80;;;17.40;85.20;;;;;;5009361;28;20035;-77
2022/10/06 06:43:59;;;;;;;2.50;0.88;;;17.40;85.10;;;;;;5009349;28;20056;-76
2022/10/06 06:46:30;;;;;;;1.15;0.60;;;17.50;85.00;;;;;;5026940;28;20067;-76
2022/10/06 06:48:58;;;;;;;2.08;0.73;;;17.50;84.90;;;;;;5009229;28;20036;-76
2022/10/06 06:51:24;;;;;;;2.10;0.90;;;17.50;84.70;;;;;;5008670;28;20038;-77
2022/10/06 06:53:51;;;;;;;1.75;0.60;;;17.60;84.50;;;;;;5008803;28;20073;-76
2022/10/06 06:56:17;;;;;;;1.35;0.80;;;17.60;84.20;;;;;;5009158;28;20033;-76
2022/10/06 06:58:46;;;;;;;3.03;0.70;;;17.70;84.00;;;;;;5008713;28;20460;-76
2022/10/06 07:01:15;;;;;;;1.85;0.77;;;17.70;83.80;;;;;;5026167;28;20025;-77
2022/10/06 07:03:42;;;;;;;1.42;0.60;;;17.80;83.60;;;;;;5026409;28;20033;-76
2022/10/06 07:06:11;;;;;;;4.03;0.88;;;17.80;83.50;;;;;;5026456;28;20059;-75
2022/10/06 07:08:41;;;;;;;3.17;0.60;;;17.80;83.40;;;;;;5008612;28;20072;-75
2022/10/06 07:11:28;;;;;;;2.05;0.70;;;17.80;83.40;;;;;;5025998;28;20658;-77
2022/10/06 07:13:57;;;;;;;1.35;0.77;;;17.80;83.30;;;;;;5026417;28;20025;-76
2022/10/06 07:27:45;;;;;;;2.00;0.70;;;17.90;83.00;;;;;;5026117;28;20079;-76
2022/10/06 07:30:16;;;;;;;2.65;0.57;;;18.00;82.90;;;;;;5025963;28;20017;-76
2022/10/06 07:32:42;;;;;;;2.20;0.98;;;18.00;82.80;;;;;;5025760;28;20401;-76
2022/10/06 07:35:08;;;;;;;1.80;0.60;;;18.10;82.70;;;;;;5008464;28;20025;-76
2022/10/06 07:37:34;;;;;;;2.13;0.55;;;18.10;82.60;;;;;;5026040;28;20400;-76
2022/10/06 07:40:00;;;;;;;2.67;0.80;;;18.10;82.50;;;;;;5008381;28;20484;-76
2022/10/06 07:42:26;;;;;;;3.13;0.88;;;18.10;82.40;;;;;;5025405;28;20037;-77
2022/10/06 07:47:39;;;;;;;3.17;0.80;;;18.20;82.20;;;;;;5025598;28;20092;-76
2022/10/06 07:50:06;;;;;;;2.47;0.70;;;18.20;82.00;;;;;;5007878;28;20022;-77
2022/10/06 07:52:35;;;;;;;2.63;0.65;;;18.30;81.90;;;;;;5025134;28;20117;-76
2022/10/06 07:55:01;;;;;;;2.10;0.77;;;18.30;81.70;;;;;;5008111;28;20083;-76
2022/10/06 07:57:33;;;;;;;1.42;0.70;;;18.40;81.40;;;;;;5025245;28;20037;-76
2022/10/06 07:59:59;;;;;;;2.53;0.65;;;18.40;81.20;;;;;;5025414;28;20061;-76
2022/10/06 08:02:25;;;;;;;1.63;0.70;;;18.50;81.10;;;;;;5024897;28;20111;-77
2022/10/06 08:04:51;;;;;;;1.58;0.80;;;18.50;80.90;;;;;;5023520;28;20088;-77
2022/10/06 08:07:17;;;;;;;1.10;0.70;;;18.60;80.80;;;;;;5007412;28;20033;-76
2022/10/06 08:09:42;;;;;;;3.42;0.98;;;18.60;80.80;;;;;;5025314;28;20979;-77
2022/10/06 08:14:52;;;;;;;1.60;0.50;;;18.60;80.70;;;;;;5025442;28;20076;-76
2022/10/06 08:17:17;;;;;;;0.93;0.55;;;18.60;80.60;;;;;;5025129;28;20057;-76
2022/10/06 08:19:43;;;;;;;2.45;0.80;;;18.60;80.60;;;;;;5025283;28;20100;-76
2022/10/06 08:22:11;;;;;;;1.73;0.65;;;18.60;80.50;;;;;;5024528;28;20021;-77
2022/10/06 08:24:37;;;;;;;1.92;0.70;;;18.60;80.50;;;;;;5025213;28;20028;-77
2022/10/06 08:27:02;;;;;;;1.05;0.60;;;18.70;80.50;;;;;;5007131;28;20025;-76
2022/10/06 08:29:28;;;;;;;1.52;0.60;;;18.70;80.40;;;;;;5025194;28;20037;-76
2022/10/06 08:31:54;;;;;;;2.03;0.70;;;18.70;80.30;;;;;;5024843;28;20022;-76
2022/10/06 08:34:20;;;;;;;3.05;0.90;;;18.70;80.20;;;;;;5007546;28;20021;-76
2022/10/06 08:36:46;;;;;;;2.28;0.80;;;18.80;80.20;;;;;;5006188;28;20029;-76
2022/10/06 08:39:11;;;;;;;2.33;0.70;;;18.80;80.10;;;;;;5025171;28;20025;-76
2022/10/06 08:41:45;;;;;;;1.40;0.63;;;18.80;80.10;;;;;;5024331;28;20116;-76
2022/10/06 08:44:19;;;;;;;1.83;0.70;;;18.80;80.00;;;;;;5025345;28;20021;-76
2022/10/06 08:47:01;;;;;;;4.18;0.85;;;18.80;80.00;;;;;;5025227;28;20032;-76
2022/10/06 08:49:36;;;;;;;2.17;1.05;;;18.80;79.90;;;;;;5024690;28;20100;-76
2022/10/06 08:52:25;;;;;;;3.50;0.70;;;18.80;80.10;;;;;;5006811;28;20120;-76
2022/10/06 08:55:11;;;;;;;1.85;0.80;;;18.80;79.90;;;;;;5024801;28;20552;-78
2022/10/06 08:57:56;;;;;;;1.48;0.60;;;18.90;79.80;;;;;;5006898;28;20045;-76
2022/10/06 09:00:21;;;;;;;2.50;0.80;;;18.90;79.70;;;;;;5007197;28;20029;-76
2022/10/06 09:02:48;;;;;;;1.42;0.60;;;19.00;79.50;;;;;;5024166;28;20438;-77
2022/10/06 09:05:24;;;;;;;2.28;0.80;;;18.90;79.30;;;;;;5024729;28;20048;-76
2022/10/06 09:08:15;;;;;;;1.70;0.70;;;19.10;79.40;;;;;;5024658;28;20064;-77
2022/10/06 09:11:11;;;;;;;1.92;0.80;;;19.00;79.40;;;;;;5024376;28;20029;-77
2022/10/06 09:13:44;;;;;;;2.28;0.80;;;19.00;79.60;;;;;;5023157;28;20026;-77
2022/10/06 09:16:16;;;;;;;2.78;0.88;;;19.00;79.70;;;;;;5014175;28;20040;-76
2022/10/06 09:18:50;;;;;;;2.80;0.80;;;19.00;79.80;;;;;;4986395;28;20121;-76
2022/10/06 09:21:18;;;;;;;3.90;0.90;;;18.90;79.90;;;;;;5003727;28;20520;-76
2022/10/06 09:23:59;;;;;;;1.75;0.60;;;18.90;79.90;;;;;;4987004;28;20058;-76
2022/10/06 09:26:32;;;;;;;2.42;0.80;;;18.90;80.00;;;;;;4987118;28;20473;-77
2022/10/06 09:28:58;;;;;;;3.38;0.77;;;18.90;80.00;;;;;;5004734;28;20037;-75
2022/10/06 09:31:30;;;;;;;0.80;0.50;;;18.90;80.00;;;;;;4986742;28;20600;-76
2022/10/06 09:34:27;;;;;;;3.08;0.77;;;18.90;80.10;;;;;;5004488;28;20030;-76
2022/10/06 09:36:59;;;;;;;2.47;0.80;;;18.90;80.10;;;;;;5003620;28;20081;-76
2022/10/06 09:39:31;;;;;;;1.60;0.60;;;18.90;80.30;;;;;;5004394;28;20068;-75
2022/10/06 09:42:01;;;;;;;2.70;0.88;;;18.90;80.30;;;;;;5004300;28;20021;-77
2022/10/06 09:44:30;;;;;;;3.70;0.85;;;18.90;80.40;;;;;;4986986;28;20689;-76
2022/10/06 09:46:56;;;;;;;1.95;0.60;;;18.90;80.30;;;;;;4986990;28;20865;-76
2022/10/06 09:49:22;;;;;;;1.60;0.60;;;18.90;80.40;;;;;;4990566;28;20033;-76
2022/10/06 09:52:10;;;;;;;2.42;0.90;;;18.80;80.40;;;;;;5007757;28;20444;-77
2022/10/06 09:54:37;;;;;;;2.70;1.00;;;18.90;80.30;;;;;;5008108;28;20664;-77
2022/10/06 09:57:26;;;;;;;2.55;0.80;;;18.90;80.70;;;;;;5008171;28;20062;-77
2022/10/06 09:59:52;;;;;;;2.05;0.70;;;19.00;80.00;;;;;;5007641;28;20036;-76
2022/10/06 10:02:30;;;;;;;2.70;0.90;;;19.00;79.90;;;;;;5007778;28;20509;-76
2022/10/06 10:04:56;;;;;;;1.67;0.82;;;19.00;79.80;;;;;;5007842;28;20491;-76
2022/10/06 10:07:25;;;;;;;2.83;0.70;;;19.00;79.70;;;;;;4990216;28;20076;-77
2022/10/06 10:10:20;;;;;;;2.50;0.70;;;19.00;79.70;;;;;;4990352;28;20034;-76
2022/10/06 10:12:54;;;;;;;1.67;0.80;;;19.00;79.70;;;;;;5007617;28;20026;-76
2022/10/06 10:15:19;;;;;;;2.65;0.85;;;19.00;79.70;;;;;;5007803;28;20106;-76
2022/10/06 10:18:02;;;;;;;3.03;0.80;;;19.00;79.80;;;;;;5007546;28;20101;-77
2022/10/06 10:20:59;;;;;;;2.50;0.70;;;19.00;80.00;;;;;;4990017;28;20107;-77
2022/10/06 10:23:32;;;;;;;2.10;0.70;;;18.90;80.20;;;;;;5007361;28;20524;-76
2022/10/06 10:26:03;;;;;;;2.35;0.68;;;18.90;80.40;;;;;;4990037;28;20030;-76
2022/10/06 10:28:45;;;;;;;1.90;0.70;;;18.80;80.70;;;;;;5007669;28;20030;-76
2022/10/06 10:31:19;;;;;;;2.30;0.55;;;18.80;80.80;;;;;;5007147;28;20045;-76
2022/10/06 10:34:18;;;;;;;1.85;0.65;;;18.80;80.70;;;;;;5007382;28;20060;-77
2022/10/06 10:36:55;;;;;;;2.03;0.80;;;18.80;80.60;;;;;;5007227;28;20190;-76
2022/10/06 10:39:44;;;;;;;1.63;0.68;;;18.80;80.60;;;;;;4990081;28;20034;-76
2022/10/06 10:42:22;;;;;;;2.58;0.68;;;18.90;80.60;;;;;;4989249;28;20030;-76
2022/10/06 10:44:58;;;;;;;2.75;0.60;;;18.80;80.60;;;;;;4989575;28;20789;-76
2022/10/06 10:47:31;;;;;;;3.05;0.70;;;18.90;80.60;;;;;;4989508;28;20033;-76
2022/10/06 10:50:18;;;;;;;1.42;0.60;;;18.90;80.60;;;;;;5007107;28;20021;-77
2022/10/06 10:52:48;;;;;;;2.17;0.80;;;18.90;80.50;;;;;;5006518;28;20049;-76
2022/10/06 10:55:27;;;;;;;2.58;0.80;;;18.90;80.50;;;;;;5007164;28;20104;-76
2022/10/06 10:57:57;;;;;;;1.85;0.70;;;18.90;80.40;;;;;;5006900;28;20040;-75
2022/10/06 11:00:27;;;;;;;1.63;0.80;;;18.90;80.30;;;;;;4988705;28;20072;-76
2022/10/06 11:02:55;;;;;;;2.05;0.75;;;19.00;80.20;;;;;;5006345;28;20057;-76
2022/10/06 11:05:39;;;;;;;2.63;0.77;;;19.00;80.10;;;;;;5007130;28;20046;-76
2022/10/06 11:08:24;;;;;;;1.80;0.70;;;19.00;80.10;;;;;;5006704;28;20080;-77
2022/10/06 11:10:58;;;;;;;2.55;0.70;;;19.00;80.00;;;;;;4988665;28;20109;-76
2022/10/06 11:13:34;;;;;;;2.83;0.70;;;19.00;80.10;;;;;;5006568;28;20453;-76
2022/10/06 11:16:28;;;;;;;1.70;0.70;;;18.90;80.10;;;;;;4989358;28;20042;-76
2022/10/06 11:19:04;;;;;;;1.50;0.60;;;19.00;80.30;;;;;;4988883;28;20076;-76
2022/10/06 11:22:03;;;;;;;2.70;0.75;;;18.90;80.40;;;;;;5006122;28;20422;-77
2022/10/06 11:24:50;;;;;;;3.25;0.65;;;18.90;80.60;;;;;;4988835;28;20195;-76
2022/10/06 11:27:19;;;;;;;1.70;0.70;;;18.90;80.50;;;;;;4988903;28;20116;-76
2022/10/06 11:30:03;;;;;;;2.08;0.70;;;18.90;80.60;;;;;;5006345;28;20058;-77
2022/10/06 11:32:46;;;;;;;2.45;0.70;;;18.90;80.60;;;;;;5005897;28;20033;-78
2022/10/06 11:35:25;;;;;;;1.90;0.70;;;18.90;80.70;;;;;;5006276;28;20500;-77
2022/10/06 11:37:59;;;;;;;1.85;0.60;;;18.90;80.60;;;;;;5005969;28;20481;-76
2022/10/06 11:40:33;;;;;;;2.20;0.73;;;18.90;80.70;;;;;;5006489;28;20041;-76
2022/10/06 11:43:26;;;;;;;2.72;0.68;;;18.90;80.70;;;;;;4988099;28;20029;-76
2022/10/06 11:46:12;;;;;;;1.50;0.52;;;18.90;80.70;;;;;;4988316;28;20117;-77
2022/10/06 11:48:39;;;;;;;2.13;0.65;;;18.90;80.70;;;;;;5006042;28;20029;-76
2022/10/06 11:51:23;;;;;;;2.40;0.63;;;18.90;80.70;;;;;;4988139;28;20030;-75
2022/10/06 11:53:49;;;;;;;1.83;0.63;;;18.90;80.70;;;;;;4988223;28;20045;-75
2022/10/06 11:56:18;;;;;;;2.15;0.70;;;18.90;80.50;;;;;;5005824;28;20022;-76
2022/10/06 11:58:49;;;;;;;2.13;0.70;;;18.90;80.40;;;;;;4988018;28;20482;-76
2022/10/06 12:01:46;;;;;;;1.98;0.65;;;18.90;80.40;;;;;;5005534;28;20194;-77
2022/10/06 12:04:18;;;;;;;1.98;0.82;;;18.90;80.30;;;;;;4983072;28;20133;-76
2022/10/06 12:06:47;;;;;;;2.97;0.70;;;19.00;80.40;;;;;;5005391;28;20041;-76
2022/10/06 12:09:25;;;;;;;3.15;0.60;;;18.90;80.30;;;;;;4988000;28;20026;-77
2022/10/06 12:12:13;;;;;;;2.55;0.68;;;18.80;80.50;;;;;;5005193;28;20050;-76
2022/10/06 12:14:58;;;;;;;2.15;0.70;;;18.80;80.60;;;;;;4960364;28;20042;-76
2022/10/06 12:17:32;;;;;;;2.05;0.90;;;18.80;80.70;;;;;;4987972;28;20030;-77
2022/10/06 12:20:46;;;;;;;1.52;0.70;;;18.80;80.80;;;;;;5009551;28;20064;-76
2022/10/06 12:23:20;;;;;;;1.83;0.60;;;18.80;80.90;;;;;;4962137;28;20145;-76
2022/10/06 12:26:02;;;;;;;1.90;0.70;;;18.80;81.00;;;;;;4994840;28;20037;-76
2022/10/06 12:28:41;;;;;;;1.55;0.60;;;18.80;81.00;;;;;;5025124;28;20033;-76
2022/10/06 12:31:40;;;;;;;2.78;0.85;;;18.80;81.00;;;;;;5024146;28;20025;-77
2022/10/06 12:34:40;;;;;;;4.55;0.90;;;18.80;81.10;;;;;;5007056;28;20025;-81
2022/10/06 12:37:28;;;;;;;1.80;0.75;;;18.70;81.00;;;;;;5006838;28;20138;-76
2022/10/06 12:40:31;;;;;;;2.35;0.70;;;18.70;81.10;;;;;;5006619;28;20125;-78
2022/10/06 12:43:44;;;;;;;2.28;0.70;;;18.70;81.10;;;;;;4999641;28;20482;-76
2022/10/06 12:46:24;;;;;;;2.80;0.60;;;18.70;81.20;;;;;;5004574;28;20040;-76
2022/10/06 12:49:11;;;;;;;1.37;0.63;;;18.70;81.30;;;;;;5004795;28;20109;-76
2022/10/06 12:51:42;;;;;;;2.42;0.70;;;18.70;81.30;;;;;;5004072;28;20030;-76
2022/10/06 12:54:29;;;;;;;1.80;0.63;;;18.70;81.20;;;;;;4987753;28;20041;-76
2022/10/06 12:56:59;;;;;;;1.65;0.70;;;18.70;81.20;;;;;;5003756;28;20468;-76
2022/10/06 12:59:30;;;;;;;1.58;0.60;;;18.70;81.20;;;;;;5005191;28;20030;-76
2022/10/06 13:02:03;;;;;;;2.53;0.60;;;18.70;81.10;;;;;;5004491;28;20420;-76
2022/10/06 13:04:52;;;;;;;2.63;0.70;;;18.70;81.10;;;;;;5005532;28;20054;-76
2022/10/06 13:07:22;;;;;;;1.10;0.50;;;18.70;81.20;;;;;;4981851;28;20065;-76
2022/10/06 13:09:50;;;;;;;1.92;0.60;;;18.70;81.30;;;;;;5005068;28;20099;-77
2022/10/06 13:12:23;;;;;;;1.55;0.47;;;18.60;81.40;;;;;;4987011;28;20125;-76
2022/10/06 13:15:18;;;;;;;2.72;0.60;;;18.70;81.50;;;;;;5004988;28;20030;-76
2022/10/06 13:17:53;;;;;;;1.52;0.63;;;18.60;81.60;;;;;;4987097;28;20030;-76
2022/10/06 13:20:53;;;;;;;3.78;0.90;;;18.60;81.70;;;;;;4987513;28;20057;-78
2022/10/06 13:23:36;;;;;;;3.03;0.70;;;18.60;81.80;;;;;;4984341;28;20088;-75
2022/10/06 13:26:14;;;;;;;1.42;0.52;;;18.50;81.90;;;;;;5017779;28;20038;-76
2022/10/06 13:28:42;;;;;;;2.80;0.57;;;18.60;82.00;;;;;;5028367;28;20552;-76